Time;durP1;ratioP1;P1;durP2;ratioP2;P2;SDS_P1;SDS_P2;PMS_P1;PMS_P2;Temp;Humidity;BMP_temperature;BMP_pressure;BME280_temperature;BME280_humidity;BME280_pressure;Samples;Min_cycle;Max_cycle;Signal;HPM_P1;HPM_P2
2022/12/15 05:32:07;;;;;;;45.30;21.67;;;;;;;-1.05;100.00;99611.91;5343353;33;34167;-86
2022/12/15 05:35:10;;;;;;;46.78;22.65;;;;;;;-1.01;100.00;99604.59;5343388;33;34761;-88
2022/12/15 05:38:12;;;;;;;52.45;25.42;;;;;;;-0.97;100.00;99606.84;5329986;33;33626;-89
2022/12/15 05:41:17;;;;;;;51.80;23.92;;;;;;;-0.91;100.00;99629.28;5343024;33;36130;-89
2022/12/15 05:44:20;;;;;;;53.10;25.58;;;;;;;-0.88;100.00;99618.47;5343569;33;33591;-85
2022/12/15 05:47:23;;;;;;;56.65;26.20;;;;;;;-0.95;100.00;99617.31;5343640;33;35424;-85
2022/12/15 05:50:25;;;;;;;54.47;25.83;;;;;;;-1.00;100.00;99625.59;5344981;33;34116;-85
2022/12/15 05:53:30;;;;;;;52.15;23.73;;;;;;;-1.00;100.00;99636.16;5348121;33;34037;-85
2022/12/15 05:56:35;;;;;;;53.97;25.70;;;;;;;-0.94;100.00;99653.31;5335033;33;32629;-85
2022/12/15 05:59:37;;;;;;;55.20;24.90;;;;;;;-0.92;100.00;99657.53;5348374;33;35040;-85
2022/12/15 06:02:40;;;;;;;54.72;25.10;;;;;;;-0.90;100.00;99673.25;5334993;33;33663;-85
2022/12/15 06:05:43;;;;;;;55.15;25.73;;;;;;;-0.86;100.00;99679.97;5345525;33;33904;-85
2022/12/15 06:08:46;;;;;;;52.47;25.08;;;;;;;-0.78;100.00;99687.31;5350397;33;34460;-84
2022/12/15 06:11:51;;;;;;;53.50;23.58;;;;;;;-0.73;100.00;99695.72;5353085;33;34326;-85
2022/12/15 06:14:54;;;;;;;53.90;24.40;;;;;;;-0.65;100.00;99687.16;5344965;33;33972;-85
2022/12/15 06:17:57;;;;;;;58.90;26.67;;;;;;;-0.64;100.00;99686.16;5344153;33;33446;-83
2022/12/15 06:21:05;;;;;;;50.85;25.40;;;;;;;-0.56;100.00;99703.09;5344283;33;34547;-84
2022/12/15 06:24:09;;;;;;;50.60;24.87;;;;;;;-0.41;100.00;99708.12;5331188;33;33217;-84
2022/12/15 06:27:11;;;;;;;60.35;26.55;;;;;;;-0.37;100.00;99710.41;5356295;33;34626;-84
2022/12/15 06:30:15;;;;;;;55.03;27.17;;;;;;;-0.35;100.00;99702.31;5348079;33;32040;-84
2022/12/15 06:33:21;;;;;;;52.47;23.15;;;;;;;-0.32;100.00;99710.87;5362001;33;34533;-84
2022/12/15 06:36:25;;;;;;;56.35;24.70;;;;;;;-0.33;100.00;99718.91;5355068;33;34518;-84
2022/12/15 06:39:27;;;;;;;51.70;25.60;;;;;;;-0.25;100.00;99732.38;5341111;33;33878;-84
2022/12/15 06:42:30;;;;;;;56.42;25.10;;;;;;;-0.20;100.00;99735.50;5338200;33;32245;-84
2022/12/15 06:45:34;;;;;;;54.10;24.83;;;;;;;-0.19;100.00;99721.28;5342539;33;33657;-85
2022/12/15 06:48:37;;;;;;;42.58;22.30;;;;;;;-0.23;100.00;99719.87;5343551;33;34659;-85
2022/12/15 06:51:40;;;;;;;54.20;24.30;;;;;;;-0.29;100.00;99731.78;5336162;33;35463;-84
2022/12/15 06:54:43;;;;;;;53.97;24.02;;;;;;;-0.30;100.00;99738.00;5332329;33;33582;-85
2022/12/15 06:57:46;;;;;;;54.30;23.38;;;;;;;-0.24;100.00;99736.69;5327745;33;33542;-84
2022/12/15 07:00:49;;;;;;;54.42;24.73;;;;;;;-0.12;100.00;99753.34;5319656;33;266028;-84
2022/12/15 07:03:52;;;;;;;53.03;25.23;;;;;;;-0.05;100.00;99757.22;5311502;33;34246;-84
2022/12/15 07:06:56;;;;;;;60.42;26.60;;;;;;;0.03;100.00;99749.50;5335856;33;34020;-84
2022/12/15 07:09:58;;;;;;;59.13;25.90;;;;;;;-0.07;100.00;99736.16;5345381;33;35567;-83
2022/12/15 07:13:01;;;;;;;62.70;26.52;;;;;;;-0.06;100.00;99759.00;5348096;33;34230;-84
2022/12/15 07:16:06;;;;;;;55.50;26.80;;;;;;;-0.06;100.00;99779.31;5325633;33;33295;-84
2022/12/15 07:19:13;;;;;;;60.30;27.30;;;;;;;-0.06;100.00;99768.72;5325557;33;34600;-84
2022/12/15 07:22:15;;;;;;;64.87;26.08;;;;;;;-0.08;100.00;99771.53;5331501;33;34088;-84
2022/12/15 07:25:18;;;;;;;62.13;27.27;;;;;;;0.17;100.00;99782.72;5331550;33;34300;-83
2022/12/15 07:28:21;;;;;;;58.75;26.77;;;;;;;0.14;100.00;99781.19;5311047;33;32698;-84
2022/12/15 07:31:30;;;;;;;60.55;28.80;;;;;;;0.15;100.00;99789.97;5312838;33;34257;-84
2022/12/15 07:34:33;;;;;;;57.53;25.88;;;;;;;0.21;100.00;99811.50;5328509;33;32535;-84
2022/12/15 07:37:36;;;;;;;62.17;27.73;;;;;;;0.40;100.00;99786.97;5328350;33;34100;-84
2022/12/15 07:40:39;;;;;;;56.70;26.08;;;;;;;0.51;100.00;99794.03;5332658;33;34626;-85
2022/12/15 07:43:42;;;;;;;59.42;26.35;;;;;;;0.67;100.00;99815.63;5343775;33;33693;-87
2022/12/15 07:46:47;;;;;;;61.35;27.70;;;;;;;0.80;100.00;99814.59;5336101;33;34638;-88
2022/12/15 07:49:50;;;;;;;66.37;28.55;;;;;;;0.75;100.00;99803.53;5331774;33;33985;-85
2022/12/15 07:52:53;;;;;;;69.57;30.45;;;;;;;0.65;100.00;99804.31;5341130;33;34090;-85
2022/12/15 07:55:59;;;;;;;64.70;30.27;;;;;;;0.63;100.00;99808.06;5338345;33;34147;-84
2022/12/15 07:59:09;;;;;;;66.03;30.12;;;;;;;0.56;100.00;99805.09;5334539;33;33688;-84
2022/12/15 08:02:13;;;;;;;65.37;30.33;;;;;;;0.43;100.00;99810.53;5335096;33;33881;-84
2022/12/15 08:05:18;;;;;;;57.05;28.35;;;;;;;0.48;100.00;99826.06;5345039;33;34273;-84
2022/12/15 08:08:21;;;;;;;65.85;29.25;;;;;;;0.49;100.00;99822.44;5344989;33;32232;-84
2022/12/15 08:11:24;;;;;;;60.60;27.37;;;;;;;0.53;100.00;99815.94;5341611;33;34535;-84
2022/12/15 08:14:28;;;;;;;67.00;29.37;;;;;;;0.41;100.00;99812.50;5343899;33;33563;-84
2022/12/15 08:17:30;;;;;;;65.57;29.05;;;;;;;0.41;100.00;99825.75;5333084;33;34964;-84
2022/12/15 08:20:34;;;;;;;61.22;28.60;;;;;;;0.52;100.00;99839.88;5339714;33;34598;-84
2022/12/15 08:23:39;;;;;;;71.07;29.73;;;;;;;0.64;100.00;99842.38;5335612;33;34739;-84
2022/12/15 08:26:42;;;;;;;58.75;26.77;;;;;;;0.86;100.00;99853.81;5336191;33;32696;-84
2022/12/15 08:29:45;;;;;;;59.58;28.87;;;;;;;1.15;100.00;99855.84;5336274;33;34590;-84
2022/12/15 08:32:53;;;;;;;59.92;28.50;;;;;;;1.26;100.00;99861.06;5344184;33;34238;-84
2022/12/15 08:36:01;;;;;;;56.37;28.77;;;;;;;1.17;100.00;99854.75;5343215;33;34162;-83
2022/12/15 08:39:04;;;;;;;66.12;27.37;;;;;;;1.15;100.00;99866.44;5342837;33;33838;-83
2022/12/15 08:42:07;;;;;;;59.35;29.10;;;;;;;1.17;100.00;99864.47;5343860;33;33752;-83
2022/12/15 08:45:12;;;;;;;59.40;28.80;;;;;;;1.22;100.00;99868.41;5345249;33;32976;-83
2022/12/15 08:48:15;;;;;;;52.20;26.65;;;;;;;1.23;100.00;99863.94;5339698;33;33997;-83
2022/12/15 08:51:19;;;;;;;59.60;28.92;;;;;;;1.17;100.00;99869.78;5343449;33;34370;-86
2022/12/15 08:54:22;;;;;;;54.72;26.23;;;;;;;1.33;100.00;99872.81;5334628;33;33687;-84
2022/12/15 08:57:25;;;;;;;54.58;26.70;;;;;;;1.46;100.00;99880.56;5325561;33;32379;-84
2022/12/15 09:00:28;;;;;;;51.40;25.65;;;;;;;1.66;100.00;99892.09;5337231;33;33768;-83
2022/12/15 09:03:32;;;;;;;57.85;26.15;;;;;;;1.62;100.00;99890.69;5343892;33;34339;-85
2022/12/15 09:06:36;;;;;;;56.30;26.92;;;;;;;1.77;100.00;99889.38;5330134;33;32591;-83
2022/12/15 09:09:38;;;;;;;52.28;24.42;;;;;;;1.67;100.00;99899.94;5346320;33;33857;-83
2022/12/15 09:12:41;;;;;;;54.63;26.08;;;;;;;1.78;100.00;99896.34;5333745;33;33685;-85
2022/12/15 09:15:44;;;;;;;56.95;26.40;;;;;;;1.52;100.00;99894.16;5319653;33;32258;-83
2022/12/15 09:19:08;;;;;;;51.03;24.37;;;;;;;1.68;100.00;99879.56;5343877;33;33956;-83
2022/12/15 09:22:11;;;;;;;50.50;24.73;;;;;;;1.84;100.00;99879.06;5327135;33;33465;-84
2022/12/15 09:25:13;;;;;;;53.42;25.10;;;;;;;1.69;100.00;99878.56;5331986;33;34781;-84
2022/12/15 09:28:16;;;;;;;56.22;25.50;;;;;;;1.91;100.00;99883.69;5335398;33;33870;-83
2022/12/15 09:31:22;;;;;;;54.75;25.45;;;;;;;2.17;100.00;99885.88;5332938;33;35262;-87
2022/12/15 09:34:24;;;;;;;54.15;24.05;;;;;;;2.11;100.00;99881.13;5337259;33;36235;-88
2022/12/15 09:37:29;;;;;;;58.67;26.12;;;;;;;2.20;100.00;99888.25;5331327;33;32414;-85
2022/12/15 09:40:32;;;;;;;53.17;25.80;;;;;;;2.43;100.00;99881.72;5328758;33;33704;-84
2022/12/15 09:43:40;;;;;;;53.00;25.62;;;;;;;2.48;100.00;99884.78;5327527;33;34039;-84
2022/12/15 09:47:04;;;;;;;59.42;28.45;;;;;;;2.59;100.00;99880.34;5325271;33;34445;-84
2022/12/15 09:50:14;;;;;;;56.92;26.00;;;;;;;2.68;100.00;99879.50;5325662;33;34097;-84
2022/12/15 09:53:17;;;;;;;55.88;26.08;;;;;;;2.80;100.00;99875.72;5324351;33;33879;-84
2022/12/15 09:56:59;;;;;;;64.22;27.35;;;;;;;2.64;100.00;99883.44;5336319;33;34375;-84
2022/12/15 10:00:20;;;;;;;57.47;25.65;;;;;;;2.84;100.00;99871.81;5336015;33;33876;-84
2022/12/15 10:03:42;;;;;;;58.78;27.45;;;;;;;3.01;100.00;99864.09;5330650;33;32165;-84
2022/12/15 10:06:53;;;;;;;56.60;25.40;;;;;;;3.01;100.00;99854.28;5343761;33;33710;-84
2022/12/15 10:09:57;;;;;;;59.55;26.45;;;;;;;2.90;100.00;99870.41;5344913;33;34070;-84
2022/12/15 10:13:06;;;;;;;57.42;26.10;;;;;;;2.61;100.00;99873.09;5347557;33;32640;-84
2022/12/15 10:16:18;;;;;;;64.63;27.73;;;;;;;2.57;100.00;99877.81;5361737;33;33798;-88
2022/12/15 10:19:30;;;;;;;61.70;26.90;;;;;;;2.24;100.00;99882.53;5361045;33;35494;-85
2022/12/15 10:22:35;;;;;;;59.25;27.85;;;;;;;2.17;100.00;99885.88;5361246;33;34077;-84
2022/12/15 10:25:44;;;;;;;59.90;27.35;;;;;;;2.37;100.00;99882.28;5362148;33;34135;-84
2022/12/15 10:29:12;;;;;;;61.78;25.77;;;;;;;2.32;100.00;99886.31;5349508;33;33772;-83
2022/12/15 10:32:18;;;;;;;58.00;26.98;;;;;;;2.43;100.00;99880.91;5345682;33;34128;-84
2022/12/15 10:35:26;;;;;;;61.42;26.55;;;;;;;2.38;100.00;99878.63;5320324;33;32486;-84
2022/12/15 10:38:46;;;;;;;55.20;26.73;;;;;;;2.43;100.00;99875.59;5329264;33;34088;-83
2022/12/15 10:42:17;;;;;;;59.03;27.70;;;;;;;2.47;100.00;99877.81;5324482;33;34740;-84
2022/12/15 10:45:39;;;;;;;60.12;26.95;;;;;;;2.62;100.00;99872.94;5330813;33;33737;-84
2022/12/15 10:48:48;;;;;;;58.80;25.83;;;;;;;2.61;100.00;99870.44;5330977;33;33662;-83
2022/12/15 10:51:56;;;;;;;59.42;28.00;;;;;;;2.59;100.00;99875.03;5336729;33;33848;-84
2022/12/15 10:54:59;;;;;;;58.47;26.50;;;;;;;2.56;100.00;99875.31;5339802;33;34270;-87
2022/12/15 10:58:13;;;;;;;57.42;28.60;;;;;;;2.55;100.00;99863.84;5329366;33;34405;-88
2022/12/15 11:01:27;;;;;;;60.50;27.58;;;;;;;2.60;100.00;99872.22;5336823;33;33537;-85
2022/12/15 11:04:31;;;;;;;62.60;27.62;;;;;;;2.63;100.00;99857.81;5333257;33;31265;-84
2022/12/15 11:07:40;;;;;;;60.72;28.08;;;;;;;2.78;100.00;99852.91;5345248;33;33945;-84
2022/12/15 11:14:43;;;;;;;57.55;28.23;;;;;;;2.79;100.00;99855.44;5298931;33;35471;-84
2022/12/15 11:17:56;;;;;;;58.95;26.42;;;;;;;2.86;100.00;99880.47;5339304;33;33497;-84
2022/12/15 11:21:16;;;;;;;61.15;26.70;;;;;;;2.79;100.00;99881.19;5348109;33;33922;-84
2022/12/15 11:24:32;;;;;;;55.80;26.90;;;;;;;2.85;100.00;99872.66;5352736;33;33972;-84
2022/12/15 11:27:39;;;;;;;56.83;25.17;;;;;;;2.85;100.00;99875.31;5348347;33;33710;-84
2022/12/15 11:30:46;;;;;;;57.25;25.88;;;;;;;2.94;100.00;99869.97;5339335;33;32107;-84
2022/12/15 11:33:54;;;;;;;55.83;27.05;;;;;;;3.06;100.00;99851.22;5336338;33;34456;-88
2022/12/15 11:36:56;;;;;;;60.45;25.35;;;;;;;3.02;100.00;99856.00;5326261;33;33595;-84
2022/12/15 11:40:43;;;;;;;60.03;26.85;;;;;;;2.73;100.00;99862.16;5326162;33;33697;-84
2022/12/15 11:44:16;;;;;;;59.13;25.67;;;;;;;2.72;100.00;99862.28;5338969;33;34433;-84
2022/12/15 11:47:28;;;;;;;57.67;26.33;;;;;;;2.92;100.00;99868.44;5338272;33;34780;-83
2022/12/15 11:50:49;;;;;;;58.55;25.48;;;;;;;2.79;100.00;99866.06;5353642;33;33705;-83
2022/12/15 11:54:14;;;;;;;55.12;26.87;;;;;;;2.85;100.00;99872.66;5336218;33;33654;-84
2022/12/15 11:57:44;;;;;;;58.60;26.20;;;;;;;2.78;100.00;99882.16;5336605;33;33871;-84
2022/12/15 12:01:27;;;;;;;56.85;26.95;;;;;;;2.68;100.00;99887.47;5330645;33;33701;-89
2022/12/15 12:04:43;;;;;;;56.05;24.65;;;;;;;2.70;100.00;99897.00;5344198;33;34415;-85
2022/12/15 12:08:26;;;;;;;58.00;26.33;;;;;;;2.54;100.00;99901.16;5360200;33;34741;-84
2022/12/15 12:11:39;;;;;;;59.10;27.20;;;;;;;2.43;100.00;99899.50;5354048;33;33752;-84
2022/12/15 12:15:11;;;;;;;56.97;25.48;;;;;;;2.42;100.00;99889.81;5352951;33;34933;-84
2022/12/15 12:18:23;;;;;;;61.33;25.67;;;;;;;2.63;100.00;99881.72;5345460;33;34665;-84
2022/12/15 12:21:34;;;;;;;63.25;27.35;;;;;;;2.83;100.00;99891.38;5347808;33;34544;-85
2022/12/15 12:24:49;;;;;;;62.20;27.10;;;;;;;2.93;100.00;99886.09;5353932;33;34561;-83
2022/12/15 12:28:05;;;;;;;61.22;27.17;;;;;;;2.90;100.00;99889.88;5343802;33;33793;-84
2022/12/15 12:31:21;;;;;;;58.75;26.40;;;;;;;2.69;100.00;99878.50;5339645;33;34796;-84
2022/12/15 12:34:29;;;;;;;61.63;27.55;;;;;;;2.54;100.00;99879.91;5333387;33;34587;-84
2022/12/15 12:37:47;;;;;;;62.97;26.67;;;;;;;2.62;100.00;99867.59;5343406;33;34087;-84
2022/12/15 12:40:56;;;;;;;70.65;28.40;;;;;;;2.60;100.00;99863.41;5327058;33;34640;-83
2022/12/15 12:44:07;;;;;;;67.43;28.38;;;;;;;2.66;100.00;99870.81;5342845;33;34291;-83
2022/12/15 12:47:10;;;;;;;72.82;29.63;;;;;;;2.76;100.00;99865.53;5335472;33;34078;-84
2022/12/15 12:50:15;;;;;;;73.28;30.45;;;;;;;2.76;100.00;99877.00;5325679;33;33079;-83
2022/12/15 12:53:32;;;;;;;67.30;30.80;;;;;;;2.70;100.00;99873.06;5320681;33;34729;-83
2022/12/15 12:56:43;;;;;;;77.03;31.27;;;;;;;2.62;100.00;99877.41;5334612;33;33902;-83
2022/12/15 12:59:57;;;;;;;70.10;30.00;;;;;;;2.48;100.00;99884.78;5328450;33;34615;-83
2022/12/15 13:03:18;;;;;;;67.62;28.52;;;;;;;2.49;100.00;99883.84;5329850;33;33440;-83
2022/12/15 13:06:32;;;;;;;76.30;29.80;;;;;;;2.48;100.00;99876.81;5315169;33;33595;-83
2022/12/15 13:09:37;;;;;;;64.53;29.90;;;;;;;2.65;100.00;99885.94;5342658;33;33652;-87
2022/12/15 13:12:50;;;;;;;81.20;30.12;;;;;;;2.71;100.00;99892.50;5340250;33;34145;-88
2022/12/15 13:16:07;;;;;;;70.10;29.35;;;;;;;2.50;100.00;99901.44;5344807;33;34034;-83
2022/12/15 13:19:10;;;;;;;76.85;30.73;;;;;;;2.46;100.00;99902.72;5349267;33;34132;-83
2022/12/15 13:22:34;;;;;;;70.50;29.73;;;;;;;2.32;100.00;99904.91;5334589;33;34125;-84
2022/12/15 13:25:40;;;;;;;81.68;30.65;;;;;;;2.22;100.00;99910.19;5337305;33;34143;-83
2022/12/15 13:28:47;;;;;;;75.70;30.88;;;;;;;2.13;100.00;99898.56;5335403;33;33653;-84
2022/12/15 13:31:52;;;;;;;75.10;30.58;;;;;;;2.06;100.00;99899.25;5326967;33;34275;-84
2022/12/15 13:34:59;;;;;;;76.03;30.77;;;;;;;2.02;100.00;99899.53;5333714;33;33834;-85
2022/12/15 13:38:02;;;;;;;69.47;30.12;;;;;;;2.05;100.00;99895.78;5343165;33;34715;-84
2022/12/15 13:41:21;;;;;;;72.68;29.83;;;;;;;2.14;100.00;99900.25;5344812;33;34213;-84
2022/12/15 13:44:31;;;;;;;68.87;29.25;;;;;;;2.23;100.00;99899.44;5350895;33;35639;-84
2022/12/15 13:47:35;;;;;;;72.25;28.77;;;;;;;2.16;100.00;99900.94;5341445;33;33876;-83
2022/12/15 13:50:46;;;;;;;67.68;28.90;;;;;;;2.16;100.00;99905.41;5335533;33;33790;-83
2022/12/15 13:54:11;;;;;;;66.85;28.23;;;;;;;2.11;100.00;99911.16;5338717;33;33971;-83
2022/12/15 13:57:16;;;;;;;68.80;30.30;;;;;;;2.03;100.00;99913.62;5324837;33;34029;-83
2022/12/15 14:00:19;;;;;;;74.45;29.98;;;;;;;1.94;100.00;99909.13;5337325;33;34112;-85
2022/12/15 14:03:23;;;;;;;71.15;30.15;;;;;;;1.84;100.00;99911.72;5330845;33;34706;-87
2022/12/15 14:06:32;;;;;;;63.30;29.67;;;;;;;1.78;100.00;99907.81;5336218;33;33985;-88
2022/12/15 14:09:40;;;;;;;65.55;28.40;;;;;;;1.74;100.00;99911.69;5333982;33;34641;-83
2022/12/15 14:12:44;;;;;;;65.50;28.23;;;;;;;1.67;100.00;99920.31;5341543;33;34122;-83
2022/12/15 14:16:12;;;;;;;68.87;29.98;;;;;;;1.63;100.00;99906.47;5325975;33;32770;-83
2022/12/15 14:19:17;;;;;;;69.40;29.63;;;;;;;1.65;100.00;99899.22;5330814;33;33730;-82
2022/12/15 14:22:28;;;;;;;67.57;28.85;;;;;;;1.59;100.00;99907.72;5326629;33;33037;-83
2022/12/15 14:25:32;;;;;;;65.55;29.42;;;;;;;1.59;100.00;99919.16;5336312;33;33719;-82
2022/12/15 14:28:37;;;;;;;69.22;30.08;;;;;;;1.63;100.00;99911.78;5329551;33;33924;-83
2022/12/15 14:31:40;;;;;;;74.07;30.83;;;;;;;1.63;100.00;99917.09;5325783;33;34614;-83
2022/12/15 14:34:43;;;;;;;70.35;30.65;;;;;;;1.64;100.00;99907.31;5330897;33;34608;-83
2022/12/15 14:37:55;;;;;;;65.65;27.65;;;;;;;1.64;100.00;99896.69;5327179;33;33722;-83
2022/12/15 14:41:02;;;;;;;64.45;29.42;;;;;;;1.60;100.00;99898.78;5328406;33;33696;-83
2022/12/15 14:44:22;;;;;;;67.47;29.12;;;;;;;1.58;100.00;99898.94;5332410;33;34055;-84
2022/12/15 14:47:46;;;;;;;63.90;28.42;;;;;;;1.56;100.00;99898.22;5330723;33;34492;-83
2022/12/15 14:51:12;;;;;;;65.53;28.70;;;;;;;1.50;100.00;99913.81;5341643;33;34236;-87
2022/12/15 14:54:30;;;;;;;77.75;30.50;;;;;;;1.51;100.00;99918.97;5331313;33;33765;-87
2022/12/15 14:57:46;;;;;;;67.30;27.73;;;;;;;1.53;100.00;99911.75;5314564;33;32478;-83
2022/12/15 15:00:52;;;;;;;65.70;29.20;;;;;;;1.57;100.00;99902.53;5340982;33;33522;-83
2022/12/15 15:04:04;;;;;;;63.38;29.08;;;;;;;1.58;100.00;99908.72;5335316;33;32259;-84
2022/12/15 15:07:16;;;;;;;69.65;28.95;;;;;;;1.57;100.00;99920.28;5336263;33;32208;-84
2022/12/15 15:10:28;;;;;;;69.68;29.20;;;;;;;1.49;100.00;99928.03;5332970;33;32415;-83
2022/12/15 15:13:38;;;;;;;63.87;28.62;;;;;;;1.50;100.00;99917.31;5330886;33;32648;-83
2022/12/15 15:16:42;;;;;;;64.45;27.73;;;;;;;1.48;100.00;99939.63;5331234;33;32325;-83
2022/12/15 15:19:50;;;;;;;74.85;30.45;;;;;;;1.52;100.00;99939.25;5327226;33;32503;-83
2022/12/15 15:23:15;;;;;;;71.53;28.98;;;;;;;1.51;100.00;99932.25;5340613;33;33833;-83
2022/12/15 15:26:18;;;;;;;61.45;28.10;;;;;;;1.40;100.00;99944.75;5342830;33;33990;-85
2022/12/15 15:29:37;;;;;;;68.87;30.33;;;;;;;1.41;100.00;99933.19;5346452;33;34007;-82
2022/12/15 15:32:57;;;;;;;62.17;28.25;;;;;;;1.41;100.00;99923.41;5341366;33;33738;-83
2022/12/15 15:36:01;;;;;;;64.75;29.25;;;;;;;1.41;100.00;99923.41;5329505;33;32752;-86
2022/12/15 15:39:14;;;;;;;65.82;29.25;;;;;;;1.40;100.00;99924.34;5354150;33;34129;-85
2022/12/15 15:42:17;;;;;;;73.80;30.25;;;;;;;1.58;100.00;99914.84;5340719;33;33839;-83
2022/12/15 15:45:27;;;;;;;55.72;27.25;;;;;;;1.47;100.00;99914.09;5343498;33;33870;-83
2022/12/15 15:48:56;;;;;;;68.15;28.42;;;;;;;1.53;100.00;99910.91;5344529;33;33989;-84
2022/12/15 15:51:59;;;;;;;61.20;28.50;;;;;;;1.59;100.00;99907.72;5331487;33;35319;-84
2022/12/15 15:55:03;;;;;;;64.47;28.58;;;;;;;1.46;100.00;99899.12;5344896;33;34163;-84
2022/12/15 15:58:10;;;;;;;71.07;29.65;;;;;;;1.40;100.00;99897.00;5345016;33;34003;-84
2022/12/15 16:01:12;;;;;;;78.18;32.20;;;;;;;1.38;100.00;99901.63;5345244;33;33630;-84
2022/12/15 16:04:15;;;;;;;68.80;30.48;;;;;;;1.39;100.00;99901.47;5332489;33;32683;-84
2022/12/15 16:07:27;;;;;;;71.07;30.48;;;;;;;1.40;100.00;99905.78;5345207;33;33838;-85
2022/12/15 16:10:30;;;;;;;67.32;28.98;;;;;;;1.42;100.00;99890.59;5348319;33;32960;-84
2022/12/15 16:13:33;;;;;;;58.80;27.87;;;;;;;1.40;100.00;99889.03;5347860;33;32620;-84
2022/12/15 16:16:36;;;;;;;54.95;26.20;;;;;;;1.40;100.00;99899.66;5348180;33;33371;-83
2022/12/15 16:19:38;;;;;;;62.15;24.90;;;;;;;1.50;100.00;99904.03;5348176;33;33533;-83
2022/12/15 16:22:44;;;;;;;54.75;24.33;;;;;;;1.35;100.00;99905.38;5348140;33;32434;-83
2022/12/15 16:25:58;;;;;;;54.42;24.92;;;;;;;1.36;100.00;99915.81;5348020;33;33259;-83
2022/12/15 16:29:02;;;;;;;52.65;24.70;;;;;;;1.41;100.00;99915.44;5364140;33;33952;-83
2022/12/15 16:32:07;;;;;;;57.58;25.10;;;;;;;1.31;100.00;99918.03;5352140;33;31826;-83
2022/12/15 16:35:11;;;;;;;48.22;23.73;;;;;;;1.30;100.00;99904.91;5367762;33;33974;-83
2022/12/15 16:38:21;;;;;;;50.45;24.33;;;;;;;1.25;100.00;99902.63;5361293;33;34963;-83
2022/12/15 16:41:26;;;;;;;45.55;22.45;;;;;;;1.21;100.00;99911.81;5348724;33;32488;-83
2022/12/15 16:44:29;;;;;;;58.38;23.95;;;;;;;1.18;100.00;99919.19;5348192;33;32990;-83
2022/12/15 16:47:31;;;;;;;52.17;23.05;;;;;;;1.28;100.00;99926.22;5361466;33;34835;-83
2022/12/15 16:50:36;;;;;;;52.53;21.25;;;;;;;1.34;100.00;99922.22;5361834;33;33908;-83
2022/12/15 16:53:41;;;;;;;52.78;23.83;;;;;;;1.27;100.00;99921.91;5361456;33;34128;-87
2022/12/15 16:56:44;;;;;;;45.90;19.85;;;;;;;1.17;100.00;99921.03;5362163;33;34067;-88
2022/12/15 16:59:48;;;;;;;49.55;20.75;;;;;;;1.08;100.00;99927.06;5348790;33;33271;-87
2022/12/15 17:02:52;;;;;;;46.97;21.65;;;;;;;1.09;100.00;99936.72;5348450;33;32695;-84
2022/12/15 17:05:58;;;;;;;40.28;21.23;;;;;;;1.11;100.00;99938.28;5362976;33;34121;-84
